Anthony, Pennsylvania
Current Conditions -  °F | °C
As of 10:54 AM on Thursday 23 Oct 2014 (Local Time) from KIPT Reporting Station
Overcast Overcast  
Wind Chill: 54°   Ceiling: 2400
Heat Index: 54°   Visibility: 10mi
Dew Point: 43°   Wind: 12mph
Humidity: 67%   Direction: 300°WNW
Pressure: 29.92"   Gusts: 20mph
Location:  41.1183°N, 76.7254°W
Report Text: KIPT 231454Z 30010G17KT 10SM OVC024 12/06 A2992
Loading
Personal Weather Stations






























Interactive Weather Map
Tropical Storm Tracking
New forecast layout! Learn more

10-Day Weather Forecast

Advertisements
Track Severe Weather on mobile